Time;durP1;ratioP1;P1;durP2;ratioP2;P2;SDS_P1;SDS_P2;PMS_P1;PMS_P2;Temp;Humidity;BMP_temperature;BMP_pressure;BME280_temperature;BME280_humidity;BME280_pressure;Samples;Min_cycle;Max_cycle;Signal;HPM_P1;HPM_P2
2022/05/04 00:00:30;;;;;;;;;;;;;;;27.51;28.76;100700.84;5072877;28;1257;-30
2022/05/04 00:02:55;;;;;;;;;;;;;;;27.45;28.64;100704.31;5059986;28;1906;-30
2022/05/04 00:05:20;;;;;;;;;;;;;;;27.50;28.76;100699.19;5066255;28;900;-32
2022/05/04 00:07:46;;;;;;;;;;;;;;;27.51;28.58;100708.09;5059694;28;936;-33
2022/05/04 00:10:11;;;;;;;;;;;;;;;27.56;28.82;100710.28;5059422;28;846;-32
2022/05/04 00:12:36;;;;;;;;;;;;;;;27.43;28.63;100705.50;5068045;28;790;-32
2022/05/04 00:15:02;;;;;;;;;;;;;;;27.19;29.22;100710.16;5063205;28;745;-35
2022/05/04 00:17:27;;;;;;;;;;;;;;;27.34;29.42;100708.28;5059635;28;770;-30
2022/05/04 00:19:53;;;;;;;;;;;;;;;27.97;28.70;100708.94;5066030;28;836;-31
2022/05/04 00:22:18;;;;;;;;;;;;;;;28.76;27.45;100717.22;5059552;28;1969;-32
2022/05/04 00:24:44;;;;;;;;;;;;;;;28.13;28.04;100717.88;5062749;28;841;-34
2022/05/04 00:27:09;;;;;;;;;;;;;;;28.01;27.81;100710.22;5064309;28;753;-31
2022/05/04 00:29:35;;;;;;;;;;;;;;;28.02;27.92;100724.59;5059256;28;798;-33
2022/05/04 00:32:00;;;;;;;;;;;;;;;27.93;28.54;100718.44;5059296;28;803;-34
2022/05/04 00:34:26;;;;;;;;;;;;;;;28.53;27.76;100720.19;5059306;28;876;-33
2022/05/04 00:36:51;;;;;;;;;;;;;;;28.81;27.03;100717.50;5065534;28;880;-33
2022/05/04 00:39:16;;;;;;;;;;;;;;;28.16;27.51;100721.00;5070084;28;845;-31
2022/05/04 00:41:41;;;;;;;;;;;;;;;27.86;28.31;100723.78;5059321;28;886;-32
2022/05/04 00:44:07;;;;;;;;;;;;;;;27.68;28.36;100721.41;5059025;28;1898;-32
2022/05/04 00:46:32;;;;;;;;;;;;;;;28.25;28.07;100721.72;5059136;28;781;-31
2022/05/04 00:48:57;;;;;;;;;;;;;;;28.98;26.83;100727.25;5058531;28;861;-30
2022/05/04 00:51:23;;;;;;;;;;;;;;;28.29;27.74;100724.88;5071958;28;902;-33
2022/05/04 00:53:48;;;;;;;;;;;;;;;28.17;27.75;100720.00;5040505;28;767;-33
2022/05/04 00:56:13;;;;;;;;;;;;;;;28.20;27.78;100718.75;5059227;28;758;-31
2022/05/04 00:58:57;;;;;;;;;;;;;;;28.05;27.66;100713.38;5062806;28;981;-29
2022/05/04 01:01:26;;;;;;;;;;;;;;;27.87;28.27;100718.19;5057163;28;1298;-30
2022/05/04 01:03:52;;;;;;;;;;;;;;;28.33;27.94;100718.94;5071465;28;1906;-34
2022/05/04 01:06:18;;;;;;;;;;;;;;;28.37;28.04;100711.28;5058741;28;857;-31
2022/05/04 01:08:43;;;;;;;;;;;;;;;28.88;27.26;100714.03;5058668;28;842;-33
2022/05/04 01:11:08;;;;;;;;;;;;;;;28.41;27.38;100706.31;5058523;28;1428;-32
2022/05/04 01:13:34;;;;;;;;;;;;;;;28.38;27.57;100712.13;5059078;28;1043;-30
2022/05/04 01:15:59;;;;;;;;;;;;;;;28.41;27.75;100706.31;5064404;28;762;-32
2022/05/04 01:18:24;;;;;;;;;;;;;;;28.93;27.26;100704.25;5059606;28;790;-31
2022/05/04 01:20:50;;;;;;;;;;;;;;;29.06;26.76;100708.97;5064663;28;839;-32
2022/05/04 01:23:15;;;;;;;;;;;;;;;28.50;27.42;100710.56;5058345;28;1963;-30
2022/05/04 01:25:41;;;;;;;;;;;;;;;28.48;27.43;100712.63;5058486;28;1487;-32
2022/05/04 01:28:06;;;;;;;;;;;;;;;28.37;27.71;100708.56;5059349;28;864;-33
2022/05/04 01:30:32;;;;;;;;;;;;;;;28.28;28.02;100710.53;5067601;28;825;-33
2022/05/04 01:32:58;;;;;;;;;;;;;;;28.55;27.78;100709.97;5057970;28;899;-32
2022/05/04 01:35:23;;;;;;;;;;;;;;;28.63;27.68;100709.03;5069138;28;888;-30
2022/05/04 01:37:48;;;;;;;;;;;;;;;29.03;27.04;100708.53;5057946;28;763;-33
2022/05/04 01:40:14;;;;;;;;;;;;;;;28.52;27.53;100708.50;5057892;28;869;-33
2022/05/04 01:42:39;;;;;;;;;;;;;;;28.56;27.65;100711.66;5064569;28;1959;-33
2022/05/04 01:45:05;;;;;;;;;;;;;;;28.68;27.47;100714.66;5065035;28;838;-31
2022/05/04 01:47:31;;;;;;;;;;;;;;;28.89;27.24;100716.53;5062772;28;824;-34
2022/05/04 01:49:56;;;;;;;;;;;;;;;29.14;26.60;100716.13;5064409;28;876;-30
2022/05/04 01:52:21;;;;;;;;;;;;;;;28.62;27.14;100716.31;5057653;28;817;-32
2022/05/04 01:54:46;;;;;;;;;;;;;;;28.60;27.39;100716.50;5067664;28;909;-34
2022/05/04 01:57:12;;;;;;;;;;;;;;;28.74;27.43;100727.44;5057640;28;841;-33
2022/05/04 01:59:37;;;;;;;;;;;;;;;28.87;27.13;100731.28;5069013;28;1147;-31
2022/05/04 02:02:06;;;;;;;;;;;;;;;29.05;27.09;100725.41;5076855;28;869;-35
2022/05/04 02:04:31;;;;;;;;;;;;;;;28.66;27.36;100727.56;5076377;28;893;-33
2022/05/04 02:06:56;;;;;;;;;;;;;;;28.67;27.38;100727.38;5045308;28;1473;-30
2022/05/04 02:09:21;;;;;;;;;;;;;;;28.73;27.49;100728.47;5058369;28;805;-30
2022/05/04 02:11:47;;;;;;;;;;;;;;;29.00;27.40;100734.13;5057098;28;812;-32
2022/05/04 02:14:12;;;;;;;;;;;;;;;29.17;26.48;100733.84;5038449;28;1089;-32
2022/05/04 02:16:37;;;;;;;;;;;;;;;28.72;27.02;100735.75;5058009;28;978;-34
2022/05/04 02:19:03;;;;;;;;;;;;;;;28.67;27.43;100737.38;5056582;28;904;-32
2022/05/04 02:21:28;;;;;;;;;;;;;;;28.71;27.78;100735.97;5063668;28;826;-32
2022/05/04 02:23:53;;;;;;;;;;;;;;;29.00;27.21;100750.38;5057415;28;1894;-34
2022/05/04 02:26:19;;;;;;;;;;;;;;;29.14;27.20;100751.34;5057169;28;798;-32
2022/05/04 02:28:44;;;;;;;;;;;;;;;28.66;27.04;100741.94;5057362;28;995;-33
2022/05/04 02:31:10;;;;;;;;;;;;;;;28.72;27.24;100749.28;5056824;28;922;-32
2022/05/04 02:33:35;;;;;;;;;;;;;;;28.54;27.53;100749.75;5069839;28;866;-32
2022/05/04 02:38:45;;;;;;;;;;;;;;;29.11;27.02;100751.72;5056899;28;687;-30
2022/05/04 02:41:10;;;;;;;;;;;;;;;28.68;27.42;100757.97;5056981;28;792;-31
2022/05/04 02:43:35;;;;;;;;;;;;;;;28.60;27.45;100759.78;5057653;28;1937;-36
2022/05/04 02:46:16;;;;;;;;;;;;;;;28.47;27.33;100765.06;5066146;28;844;-31
2022/05/04 02:48:42;;;;;;;;;;;;;;;28.85;27.08;100761.25;5055974;28;1286;-30
2022/05/04 02:51:07;;;;;;;;;;;;;;;29.01;27.01;100753.94;5075044;28;912;-29
2022/05/04 02:53:33;;;;;;;;;;;;;;;28.84;26.99;100762.31;5075874;28;914;-32
2022/05/04 02:55:58;;;;;;;;;;;;;;;28.58;27.11;100759.16;5075836;28;853;-34
2022/05/04 02:58:23;;;;;;;;;;;;;;;28.43;27.22;100761.06;5075735;28;867;-31
2022/05/04 03:00:49;;;;;;;;;;;;;;;28.14;27.88;100770.91;5064710;28;1052;-31
2022/05/04 03:03:14;;;;;;;;;;;;;;;28.71;27.47;100765.72;5056343;28;1918;-31
2022/05/04 03:05:39;;;;;;;;;;;;;;;28.92;26.94;100769.44;5068899;28;817;-32
2022/05/04 03:08:05;;;;;;;;;;;;;;;28.69;26.98;100765.09;5056541;28;1075;-30
2022/05/04 03:11:54;;;;;;;;;;;;;;;28.53;27.19;100766.19;5062205;28;925;-33
2022/05/04 03:13:16;;;;;;;;;;;;;;;28.53;27.07;100782.41;5057522;28;824;-31
2022/05/04 03:15:41;;;;;;;;;;;;;;;28.48;27.36;100774.84;5056400;28;742;-31
2022/05/04 03:18:07;;;;;;;;;;;;;;;28.93;27.17;100781.94;5056536;28;922;-31
2022/05/04 03:20:32;;;;;;;;;;;;;;;29.16;26.64;100779.03;5063127;28;861;-31
2022/05/04 03:22:57;;;;;;;;;;;;;;;27.73;24.47;100779.34;5058875;28;1894;-28
2022/05/04 03:25:22;;;;;;;;;;;;;;;26.38;24.38;100777.03;5065138;28;821;-30
2022/05/04 03:27:48;;;;;;;;;;;;;;;25.94;24.28;100779.25;5056445;28;846;-31
2022/05/04 03:30:14;;;;;;;;;;;;;;;25.81;24.77;100785.16;5065265;28;1010;-29
2022/05/04 03:32:39;;;;;;;;;;;;;;;25.64;25.07;100781.69;5075507;28;926;-29
2022/05/04 03:35:05;;;;;;;;;;;;;;;25.39;25.21;100789.78;5070729;28;927;-32
2022/05/04 03:37:30;;;;;;;;;;;;;;;25.21;25.01;100792.69;5064423;28;873;-29
2022/05/04 03:39:55;;;;;;;;;;;;;;;24.93;25.76;100793.84;5056354;28;975;-30
2022/05/04 03:42:20;;;;;;;;;;;;;;;24.83;26.31;100807.41;5055801;28;1944;-31
2022/05/04 03:44:46;;;;;;;;;;;;;;;24.46;26.30;100801.44;5055726;28;920;-28
2022/05/04 03:47:11;;;;;;;;;;;;;;;24.14;27.41;100800.31;5056355;28;774;-29
2022/05/04 03:49:36;;;;;;;;;;;;;;;24.85;27.03;100807.25;5061349;28;842;-28
2022/05/04 03:52:02;;;;;;;;;;;;;;;25.00;27.23;100811.00;5075442;28;959;-28
2022/05/04 03:54:27;;;;;;;;;;;;;;;27.05;24.66;100804.44;5074615;28;1358;-30
2022/05/04 03:56:52;;;;;;;;;;;;;;;27.91;23.27;100810.53;5055544;28;750;-31
2022/05/04 03:59:18;;;;;;;;;;;;;;;28.08;23.18;100819.31;5064754;28;985;-29
2022/05/04 04:01:43;;;;;;;;;;;;;;;28.35;22.61;100819.69;5064372;28;1116;-29
2022/05/04 04:04:08;;;;;;;;;;;;;;;28.64;22.37;100816.25;5060023;28;1963;-29
2022/05/04 04:06:34;;;;;;;;;;;;;;;29.01;21.86;100824.34;5062773;28;868;-32
2022/05/04 04:08:59;;;;;;;;;;;;;;;29.39;21.97;100831.31;5054933;28;751;-29
2022/05/04 04:11:24;;;;;;;;;;;;;;;28.22;24.12;100822.19;5055552;28;814;-33
2022/05/04 04:13:50;;;;;;;;;;;;;;;27.79;24.76;100829.13;5058328;28;731;-30
2022/05/04 04:16:16;;;;;;;;;;;;;;;28.62;23.93;100831.81;5064633;28;774;-32
2022/05/04 04:18:41;;;;;;;;;;;;;;;29.13;23.29;100830.09;5055738;28;984;-29
2022/05/04 04:23:50;;;;;;;;;;;;;;;27.89;25.02;100826.13;5056293;28;1966;-32
2022/05/04 04:26:16;;;;;;;;;;;;;;;27.73;25.65;100824.44;5055930;28;802;-30
2022/05/04 04:28:42;;;;;;;;;;;;;;;27.65;25.74;100824.50;5062926;28;853;-32
2022/05/04 04:31:10;;;;;;;;;;;;;;;27.51;26.06;100824.28;5055263;28;872;-33
2022/05/04 04:33:36;;;;;;;;;;;;;;;27.34;26.53;100824.44;5055938;28;843;-31
2022/05/04 04:36:01;;;;;;;;;;;;;;;27.30;26.51;100827.69;5063659;28;987;-32
2022/05/04 04:38:27;;;;;;;;;;;;;;;27.57;26.08;100836.22;5059516;28;730;-29
2022/05/04 04:40:52;;;;;;;;;;;;;;;28.48;24.80;100831.69;5070233;28;770;-31
2022/05/04 04:43:17;;;;;;;;;;;;;;;28.91;24.24;100838.19;5067053;28;1902;-29
2022/05/04 04:45:45;;;;;;;;;;;;;;;28.17;25.36;100838.13;5077737;28;1222;-31
2022/05/04 04:48:11;;;;;;;;;;;;;;;27.98;25.54;100843.09;5078379;28;1223;-30
2022/05/04 04:50:36;;;;;;;;;;;;;;;27.99;25.65;100842.06;5076308;28;1294;-32
2022/05/04 04:53:02;;;;;;;;;;;;;;;27.80;25.84;100840.75;5076422;28;1274;-31
2022/05/04 04:55:27;;;;;;;;;;;;;;;27.94;25.84;100845.34;5076535;28;1333;-32
2022/05/04 04:57:52;;;;;;;;;;;;;;;27.75;26.25;100836.75;5077501;28;1262;-32
2022/05/04 05:00:20;;;;;;;;;;;;;;;27.82;26.14;100834.16;5075862;28;1227;-29
2022/05/04 05:02:45;;;;;;;;;;;;;;;27.66;26.19;100832.41;5078082;28;1949;-31
2022/05/04 05:05:10;;;;;;;;;;;;;;;27.65;26.68;100838.84;5073239;28;891;-34
2022/05/04 05:07:36;;;;;;;;;;;;;;;27.51;26.49;100835.09;5063846;28;943;-31
2022/05/04 05:10:01;;;;;;;;;;;;;;;27.71;26.19;100840.03;5060755;28;1113;-30
2022/05/04 05:12:26;;;;;;;;;;;;;;;27.52;26.69;100847.59;5077715;28;818;-32
2022/05/04 05:17:36;;;;;;;;;;;;;;;27.57;26.95;100838.94;5077331;28;766;-32
2022/05/04 05:20:02;;;;;;;;;;;;;;;27.53;27.12;100838.44;5068444;28;889;-33
2022/05/04 05:22:27;;;;;;;;;;;;;;;27.50;26.59;100839.69;5058360;28;1955;-31
2022/05/04 05:24:52;;;;;;;;;;;;;;;27.28;26.14;100844.09;5058458;28;880;-34
2022/05/04 05:27:18;;;;;;;;;;;;;;;27.16;26.01;100838.25;5057746;28;912;-29
2022/05/04 05:29:43;;;;;;;;;;;;;;;27.13;26.11;100847.59;5058471;28;833;-32
2022/05/04 05:32:08;;;;;;;;;;;;;;;26.96;26.07;100844.13;5064598;28;834;-35
2022/05/04 05:34:34;;;;;;;;;;;;;;;26.96;25.86;100838.72;5064431;28;777;-30
2022/05/04 05:37:02;;;;;;;;;;;;;;;27.23;26.37;100843.78;5064328;28;832;-31
2022/05/04 05:39:28;;;;;;;;;;;;;;;27.27;26.39;100847.81;5057906;28;917;-31
2022/05/04 05:41:53;;;;;;;;;;;;;;;28.05;25.13;100849.44;5057901;28;827;-33
2022/05/04 05:44:18;;;;;;;;;;;;;;;27.38;25.78;100846.53;5064064;28;1910;-29
2022/05/04 05:46:44;;;;;;;;;;;;;;;27.38;25.25;100849.22;5057444;28;813;-32
2022/05/04 05:49:09;;;;;;;;;;;;;;;27.34;25.46;100839.81;5060788;28;929;-31
2022/05/04 05:51:34;;;;;;;;;;;;;;;27.85;25.08;100850.00;5076280;28;1125;-31
2022/05/04 05:53:59;;;;;;;;;;;;;;;27.76;25.30;100851.09;5071457;28;1262;-31
2022/05/04 05:56:25;;;;;;;;;;;;;;;27.40;26.59;100852.59;5062248;28;841;-31
2022/05/04 05:58:50;;;;;;;;;;;;;;;27.62;25.92;100850.88;5064347;28;998;-29
2022/05/04 06:01:15;;;;;;;;;;;;;;;28.42;25.45;100854.09;5065071;28;1241;-28
2022/05/04 06:03:41;;;;;;;;;;;;;;;27.68;26.43;100854.72;5070301;28;1914;-32
2022/05/04 06:06:06;;;;;;;;;;;;;;;27.60;26.30;100857.47;5070455;28;1085;-29
2022/05/04 06:08:31;;;;;;;;;;;;;;;27.41;26.65;100854.25;5076160;28;1179;-30
2022/05/04 06:10:56;;;;;;;;;;;;;;;27.96;26.64;100856.78;5073381;28;1179;-28
2022/05/04 06:13:22;;;;;;;;;;;;;;;28.26;25.83;100857.81;5075664;28;1365;-29
2022/05/04 06:15:47;;;;;;;;;;;;;;;27.71;26.58;100867.03;5074046;28;1247;-28
2022/05/04 06:18:12;;;;;;;;;;;;;;;27.70;26.89;100855.38;5072132;28;1309;-29
2022/05/04 06:20:38;;;;;;;;;;;;;;;27.74;26.72;100853.97;5071203;28;1318;-30
2022/05/04 06:23:04;;;;;;;;;;;;;;;27.71;26.62;100851.66;5073620;28;1894;-30
2022/05/04 06:25:29;;;;;;;;;;;;;;;27.60;27.05;100846.66;5073860;28;1424;-28
2022/05/04 06:27:54;;;;;;;;;;;;;;;27.50;27.07;100858.59;5073899;28;1230;-31
2022/05/04 06:35:47;;;;;;;;;;;;;;;27.26;27.81;100863.16;5070057;28;1104;-30
2022/05/04 06:38:12;;;;;;;;;;;;;;;27.24;27.54;100864.38;5074352;28;1301;-30
2022/05/04 06:40:38;;;;;;;;;;;;;;;27.27;27.84;100872.13;5075128;28;1131;-30
2022/05/04 06:43:03;;;;;;;;;;;;;;;27.23;27.74;100868.09;5075193;28;1906;-30
2022/05/04 06:45:28;;;;;;;;;;;;;;;27.79;27.34;100869.66;5073087;28;1437;-29
2022/05/04 06:47:54;;;;;;;;;;;;;;;27.95;27.07;100879.47;5070298;28;1400;-32
2022/05/04 06:50:19;;;;;;;;;;;;;;;27.93;26.87;100872.53;5075914;28;1242;-29
2022/05/04 06:52:44;;;;;;;;;;;;;;;27.75;27.10;100871.03;5073922;28;1381;-28
2022/05/04 06:55:10;;;;;;;;;;;;;;;27.69;27.01;100872.63;5071956;28;1310;-28
2022/05/04 06:57:36;;;;;;;;;;;;;;;27.59;26.92;100869.31;5071343;28;1274;-28
2022/05/04 07:00:04;;;;;;;;;;;;;;;27.78;26.99;100869.84;5069234;28;1388;-30
2022/05/04 07:02:30;;;;;;;;;;;;;;;27.87;26.51;100861.47;5074683;28;1907;-30
2022/05/04 07:04:55;;;;;;;;;;;;;;;27.90;26.74;100872.91;5071563;28;1356;-30
2022/05/04 07:07:20;;;;;;;;;;;;;;;28.69;26.17;100873.34;5072996;28;1139;-29
2022/05/04 07:09:45;;;;;;;;;;;;;;;29.27;25.20;100874.38;5074893;28;1261;-28
2022/05/04 07:12:11;;;;;;;;;;;;;;;29.70;24.28;100876.19;5072469;28;1214;-28
2022/05/04 07:14:36;;;;;;;;;;;;;;;30.23;23.80;100872.13;5074040;28;1204;-29
2022/05/04 07:17:01;;;;;;;;;;;;;;;29.00;25.25;100872.25;5075048;28;1242;-30
2022/05/04 07:19:27;;;;;;;;;;;;;;;28.77;25.29;100869.69;5074991;28;1195;-30
2022/05/04 07:21:52;;;;;;;;;;;;;;;28.66;25.80;100866.44;5073759;28;1167;-29
2022/05/04 07:24:17;;;;;;;;;;;;;;;28.55;25.84;100870.47;5074143;28;1875;-32
2022/05/04 07:26:43;;;;;;;;;;;;;;;28.51;25.83;100868.34;5072972;28;1279;-31
2022/05/04 07:29:08;;;;;;;;;;;;;;;29.58;24.77;100876.72;5074891;28;1083;-28
2022/05/04 07:31:34;;;;;;;;;;;;;;;30.25;23.93;100877.38;5073316;28;1135;-28
2022/05/04 07:33:59;;;;;;;;;;;;;;;29.29;24.70;100875.88;5074810;28;1309;-29
2022/05/04 07:36:24;;;;;;;;;;;;;;;28.86;25.26;100879.38;5075240;28;1235;-32
2022/05/04 07:38:50;;;;;;;;;;;;;;;28.66;25.50;100874.56;5072593;28;993;-31
2022/05/04 07:43:59;;;;;;;;;;;;;;;28.41;26.28;100880.28;5072077;28;1967;-31
2022/05/04 07:46:26;;;;;;;;;;;;;;;28.32;26.50;100884.13;5075025;28;1055;-30
2022/05/04 07:48:51;;;;;;;;;;;;;;;28.26;26.37;100891.09;5074723;28;1112;-30
2022/05/04 07:51:17;;;;;;;;;;;;;;;29.05;25.41;100888.75;5069515;28;1029;-31
2022/05/04 07:53:42;;;;;;;;;;;;;;;29.65;24.79;100892.22;5063105;28;1147;-28
2022/05/04 07:56:07;;;;;;;;;;;;;;;30.33;23.90;100900.81;5075199;28;1249;-32
2022/05/04 07:58:33;;;;;;;;;;;;;;;29.17;24.70;100891.78;5066754;28;966;-29
2022/05/04 08:06:27;;;;;;;;;;;;;;;28.47;25.99;100908.47;5055800;28;738;-31
2022/05/04 08:08:52;;;;;;;;;;;;;;;28.46;25.94;100907.63;5057321;28;1109;-32
2022/05/04 08:11:18;;;;;;;;;;;;;;;28.44;25.77;100909.72;5071221;28;1184;-29
2022/05/04 08:13:43;;;;;;;;;;;;;;;28.64;26.00;100903.69;5070789;28;1263;-32
2022/05/04 08:16:11;;;;;;;;;;;;;;;29.54;24.72;100910.69;5070094;28;1250;-29
2022/05/04 08:18:37;;;;;;;;;;;;;;;30.07;24.16;100913.97;5075777;28;1230;-34
2022/05/04 08:21:03;;;;;;;;;;;;;;;29.46;24.52;100908.09;5068738;28;1234;-29
2022/05/04 08:23:28;;;;;;;;;;;;;;;28.96;25.14;100908.84;5069664;28;1906;-29
2022/05/04 08:25:54;;;;;;;;;;;;;;;28.91;25.51;100905.88;5072693;28;1219;-31
2022/05/04 08:28:19;;;;;;;;;;;;;;;28.96;25.58;100901.53;5072828;28;1348;-31
2022/05/04 08:30:45;;;;;;;;;;;;;;;28.93;25.55;100901.09;5073317;28;1108;-35
2022/05/04 08:33:10;;;;;;;;;;;;;;;28.66;25.45;100901.63;5076572;28;1180;-30
2022/05/04 08:35:35;;;;;;;;;;;;;;;28.64;25.98;100908.25;5070950;28;1147;-29
2022/05/04 08:38:01;;;;;;;;;;;;;;;28.78;25.91;100906.56;5074538;28;1284;-30
2022/05/04 08:40:26;;;;;;;;;;;;;;;29.74;24.60;100906.47;5074560;28;1231;-32
2022/05/04 08:42:51;;;;;;;;;;;;;;;30.50;23.72;100896.69;5071510;28;1949;-32
2022/05/04 08:45:16;;;;;;;;;;;;;;;29.34;24.72;100910.50;5075241;28;1202;-32
2022/05/04 08:47:42;;;;;;;;;;;;;;;29.09;23.85;100905.47;5064453;28;1052;-31
2022/05/04 08:50:08;;;;;;;;;;;;;;;28.66;21.77;100898.91;5073247;28;1262;-30
2022/05/04 08:52:34;;;;;;;;;;;;;;;28.56;21.05;100893.81;5058779;28;830;-28
2022/05/04 08:54:59;;;;;;;;;;;;;;;28.47;21.31;100905.78;5069825;28;1084;-32
2022/05/04 08:57:24;;;;;;;;;;;;;;;28.34;20.86;100899.16;5044926;28;830;-31
2022/05/04 08:59:50;;;;;;;;;;;;;;;29.17;21.42;100901.78;5070584;28;1017;-31
2022/05/04 09:02:15;;;;;;;;;;;;;;;29.91;20.19;100907.81;5078314;28;1194;-29
2022/05/04 09:04:44;;;;;;;;;;;;;;;29.88;19.57;100905.50;5072003;28;1909;-31
2022/05/04 09:07:24;;;;;;;;;;;;;;;28.84;20.40;100903.91;5073854;28;1100;-30
2022/05/04 09:09:53;;;;;;;;;;;;;;;29.46;20.29;100908.91;5061436;28;833;-31
2022/05/04 09:12:20;;;;;;;;;;;;;;;30.34;18.34;100902.47;5058548;28;802;-32
2022/05/04 09:14:45;;;;;;;;;;;;;;;29.04;19.61;100897.06;5072308;28;997;-29
2022/05/04 09:17:11;;;;;;;;;;;;;;;28.73;20.32;100896.28;5061485;28;841;-28
2022/05/04 09:19:36;;;;;;;;;;;;;;;28.57;20.93;100897.34;5068286;28;1184;-29
2022/05/04 09:22:02;;;;;;;;;;;;;;;28.43;21.38;100889.06;5060649;28;824;-29
2022/05/04 09:24:28;;;;;;;;;;;;;;;28.39;21.55;100895.91;5060682;28;1910;-28
2022/05/04 09:26:53;;;;;;;;;;;;;;;28.41;22.00;100880.28;5077550;28;1204;-33
2022/05/04 09:29:20;;;;;;;;;;;;;;;28.25;22.34;100881.31;5076896;28;1297;-34
2022/05/04 09:31:46;;;;;;;;;;;;;;;29.09;21.40;100886.50;5077374;28;1175;-29
2022/05/04 09:34:11;;;;;;;;;;;;;;;29.68;20.88;100880.97;5075817;28;1064;-31
2022/05/04 09:36:38;;;;;;;;;;;;;;;30.33;19.99;100882.63;5077266;28;1226;-32
2022/05/04 09:44:54;;;;;;;;;;;;;;;28.41;21.89;100885.69;5063202;28;726;-31
2022/05/04 09:47:20;;;;;;;;;;;;;;;28.44;21.77;100885.34;5065929;28;1050;-31
2022/05/04 09:49:48;;;;;;;;;;;;;;;28.35;22.43;100884.63;5073008;28;845;-29
2022/05/04 09:52:14;;;;;;;;;;;;;;;28.29;22.46;100887.19;5070618;28;1053;-29
2022/05/04 09:54:39;;;;;;;;;;;;;;;28.56;21.98;100885.69;5075668;28;952;-31
2022/05/04 09:57:05;;;;;;;;;;;;;;;29.43;20.93;100892.22;5070881;28;859;-35
2022/05/04 09:59:31;;;;;;;;;;;;;;;30.01;20.15;100884.94;5074926;28;1095;-29
2022/05/04 10:01:56;;;;;;;;;;;;;;;29.29;20.70;100889.41;5075506;28;1294;-33
2022/05/04 10:04:23;;;;;;;;;;;;;;;28.63;21.33;100884.94;5070876;28;1973;-30
2022/05/04 10:06:48;;;;;;;;;;;;;;;28.50;21.80;100889.16;5076142;28;1348;-29
2022/05/04 10:09:13;;;;;;;;;;;;;;;28.41;21.76;100880.28;5075776;28;1329;-28
2022/05/04 10:11:39;;;;;;;;;;;;;;;28.36;21.88;100875.47;5074258;28;1001;-30
2022/05/04 10:14:09;;;;;;;;;;;;;;;28.29;21.74;100873.66;5075408;28;1127;-29
2022/05/04 10:16:39;;;;;;;;;;;;;;;28.34;22.15;100871.28;5075271;28;1161;-31
2022/05/04 10:19:05;;;;;;;;;;;;;;;29.19;21.20;100873.47;5071044;28;1239;-31
2022/05/04 10:21:30;;;;;;;;;;;;;;;29.86;20.46;100871.50;5056886;28;1215;-32
2022/05/04 10:23:59;;;;;;;;;;;;;;;29.91;20.36;100872.56;5075117;28;1902;-31
2022/05/04 10:26:34;;;;;;;;;;;;;;;28.95;21.33;100864.66;5058766;28;830;-31
2022/05/04 10:31:54;;;;;;;;;;;;;;;28.56;22.09;100866.75;5021502;28;1104;-30
2022/05/04 10:34:20;;;;;;;;;;;;;;;28.56;22.10;100865.91;5075358;28;1022;-32
2022/05/04 10:36:46;;;;;;;;;;;;;;;28.60;22.27;100856.38;5076376;28;1346;-29
2022/05/04 10:39:11;;;;;;;;;;;;;;;28.55;22.51;100854.25;5075743;28;1238;-31
2022/05/04 10:41:37;;;;;;;;;;;;;;;28.36;22.30;100853.00;5057136;28;1302;-31
2022/05/04 10:44:03;;;;;;;;;;;;;;;28.84;21.80;100857.06;5075832;28;1902;-29
2022/05/04 10:46:30;;;;;;;;;;;;;;;29.69;20.78;100859.09;5075528;28;1282;-32
2022/05/04 10:49:03;;;;;;;;;;;;;;;30.22;20.23;100856.06;5054427;28;1278;-33
2022/05/04 10:51:29;;;;;;;;;;;;;;;28.92;21.49;100854.22;5075125;28;1223;-30
2022/05/04 10:54:09;;;;;;;;;;;;;;;28.71;21.59;100855.88;5074427;28;1505;-30
2022/05/04 10:56:41;;;;;;;;;;;;;;;28.62;21.83;100862.44;5075040;28;1221;-32
2022/05/04 10:59:06;;;;;;;;;;;;;;;28.44;22.07;100855.59;5062001;28;939;-31
2022/05/04 11:01:35;;;;;;;;;;;;;;;28.48;21.87;100854.16;5062527;28;1100;-33
2022/05/04 11:04:10;;;;;;;;;;;;;;;28.51;21.83;100857.53;5062398;28;1969;-34
2022/05/04 11:06:36;;;;;;;;;;;;;;;28.51;21.62;100855.63;5055584;28;842;-33
2022/05/04 11:09:05;;;;;;;;;;;;;;;28.48;21.57;100851.47;5073133;28;1230;-34
2022/05/04 11:11:30;;;;;;;;;;;;;;;29.52;20.57;100861.25;5068289;28;928;-31
2022/05/04 11:13:55;;;;;;;;;;;;;;;30.23;19.49;100868.63;5073860;28;836;-31
2022/05/04 11:16:21;;;;;;;;;;;;;;;29.24;20.35;100862.06;5062238;28;880;-32
2022/05/04 11:18:47;;;;;;;;;;;;;;;28.67;21.04;100860.00;5055995;28;848;-28
2022/05/04 11:21:12;;;;;;;;;;;;;;;28.41;21.24;100861.34;5062308;28;906;-33
2022/05/04 11:23:38;;;;;;;;;;;;;;;28.32;22.08;100863.31;5055365;28;1893;-33
2022/05/04 11:26:03;;;;;;;;;;;;;;;28.26;22.17;100860.53;5055827;28;879;-33
2022/05/04 11:28:28;;;;;;;;;;;;;;;28.26;21.68;100855.13;5068802;28;1069;-30
2022/05/04 11:30:54;;;;;;;;;;;;;;;28.39;21.36;100852.63;5073724;28;1085;-32
2022/05/04 11:33:19;;;;;;;;;;;;;;;29.52;20.20;100858.53;5075149;28;1289;-30
2022/05/04 11:35:44;;;;;;;;;;;;;;;30.16;19.41;100861.22;5064499;28;844;-32
2022/05/04 11:38:16;;;;;;;;;;;;;;;29.30;19.92;100850.44;5058805;28;798;-32
2022/05/04 11:40:48;;;;;;;;;;;;;;;28.71;20.78;100855.88;5073175;28;826;-29
2022/05/04 11:43:27;;;;;;;;;;;;;;;28.43;20.69;100843.06;5060508;28;1953;-28
2022/05/04 11:45:52;;;;;;;;;;;;;;;28.35;21.04;100846.72;5059202;28;896;-31
2022/05/04 11:48:18;;;;;;;;;;;;;;;28.29;21.29;100844.75;5063323;28;922;-31
2022/05/04 11:50:44;;;;;;;;;;;;;;;28.32;21.27;100838.13;5071233;28;891;-34
2022/05/04 11:53:09;;;;;;;;;;;;;;;28.14;21.54;100841.22;5066407;28;830;-30
2022/05/04 11:55:35;;;;;;;;;;;;;;;28.23;21.42;100848.19;5067546;28;866;-30
2022/05/04 11:58:00;;;;;;;;;;;;;;;29.44;20.27;100856.81;5073442;28;822;-31
2022/05/04 12:00:25;;;;;;;;;;;;;;;30.08;19.47;100849.72;5071659;28;1261;-29
2022/05/04 12:02:51;;;;;;;;;;;;;;;29.43;19.79;100855.13;5078798;28;1948;-30
2022/05/04 12:05:16;;;;;;;;;;;;;;;28.84;20.32;100855.16;5076012;28;844;-26
2022/05/04 12:07:42;;;;;;;;;;;;;;;28.60;21.19;100851.81;5062906;28;975;-30
2022/05/04 12:10:07;;;;;;;;;;;;;;;28.65;21.10;100848.53;5054286;28;952;-31
2022/05/04 12:12:33;;;;;;;;;;;;;;;28.56;21.16;100838.84;5066856;28;765;-29
2022/05/04 12:15:00;;;;;;;;;;;;;;;28.48;21.51;100832.53;5053694;28;861;-29
2022/05/04 12:17:26;;;;;;;;;;;;;;;28.33;21.69;100834.41;5065833;28;1037;-30
2022/05/04 12:19:51;;;;;;;;;;;;;;;28.23;22.15;100829.25;5069044;28;858;-30
2022/05/04 12:22:17;;;;;;;;;;;;;;;29.27;20.95;100837.28;5072336;28;970;-31
2022/05/04 12:24:42;;;;;;;;;;;;;;;29.88;20.13;100845.03;5053486;28;1905;-30
2022/05/04 12:27:08;;;;;;;;;;;;;;;29.81;20.30;100837.69;5065753;28;1022;-33
2022/05/04 12:35:21;;;;;;;;;;;;;;;28.43;21.81;100831.41;4996746;28;1098;-33
2022/05/04 12:37:52;;;;;;;;;;;;;;;28.56;21.91;100834.25;5042907;28;1148;-30
2022/05/04 12:40:17;;;;;;;;;;;;;;;28.39;22.20;100833.66;5073496;28;1093;-32
2022/05/04 12:42:43;;;;;;;;;;;;;;;28.52;22.11;100834.84;5074998;28;1965;-32
2022/05/04 12:45:08;;;;;;;;;;;;;;;28.36;22.32;100836.75;5073246;28;1187;-33
2022/05/04 12:47:34;;;;;;;;;;;;;;;29.36;21.34;100835.28;5059274;28;1291;-34
2022/05/04 12:49:59;;;;;;;;;;;;;;;30.05;20.69;100840.09;5075249;28;1105;-37
2022/05/04 12:52:24;;;;;;;;;;;;;;;29.52;21.14;100836.84;5071792;28;1223;-33
2022/05/04 12:54:50;;;;;;;;;;;;;;;28.62;22.57;100842.66;5067649;28;940;-31
2022/05/04 12:57:15;;;;;;;;;;;;;;;28.86;22.23;100836.06;5040074;28;805;-30
2022/05/04 12:59:40;;;;;;;;;;;;;;;28.56;22.80;100833.44;5065957;28;1036;-33
2022/05/04 13:02:06;;;;;;;;;;;;;;;28.47;22.87;100830.84;5058198;28;786;-32
2022/05/04 13:04:31;;;;;;;;;;;;;;;28.42;22.59;100827.88;5061982;28;1973;-31
2022/05/04 13:06:58;;;;;;;;;;;;;;;28.50;22.73;100834.19;5072267;28;1004;-29
2022/05/04 13:09:23;;;;;;;;;;;;;;;28.33;22.61;100823.59;5069885;28;937;-30
2022/05/04 13:11:49;;;;;;;;;;;;;;;29.38;21.65;100821.53;5072010;28;979;-30
2022/05/04 13:14:14;;;;;;;;;;;;;;;30.12;20.33;100835.56;5073472;28;1085;-31
2022/05/04 13:16:40;;;;;;;;;;;;;;;29.71;19.97;100837.22;5076257;28;1120;-36
2022/05/04 13:19:06;;;;;;;;;;;;;;;28.71;20.89;100834.22;5073929;28;1184;-34